Time;durP1;ratioP1;P1;durP2;ratioP2;P2;SDS_P1;SDS_P2;PMS_P1;PMS_P2;Temp;Humidity;BMP_temperature;BMP_pressure;BME280_temperature;BME280_humidity;BME280_pressure;Samples;Min_cycle;Max_cycle;Signal;HPM_P1;HPM_P2
2022/01/16 00:04:44;;;;;;;19.47;9.83;;;;;;;-4.01;100.00;97244.50;10371658;28;20193;-60
2022/01/16 00:09:44;;;;;;;18.03;8.47;;;;;;;-4.38;100.00;97261.97;10371575;28;20217;-59
2022/01/16 00:14:45;;;;;;;22.43;9.37;;;;;;;-4.66;100.00;97252.63;10371270;28;20607;-58
2022/01/16 00:19:45;;;;;;;22.70;8.93;;;;;;;-4.59;100.00;97272.91;10370917;28;20599;-60
2022/01/16 00:24:45;;;;;;;20.00;8.97;;;;;;;-4.45;100.00;97234.94;10370794;28;20558;-60
2022/01/16 00:29:46;;;;;;;23.07;10.00;;;;;;;-4.47;100.00;97231.59;10371031;28;20573;-61
2022/01/16 00:34:46;;;;;;;20.03;9.23;;;;;;;-4.36;100.00;97218.44;10370613;28;20738;-60
2022/01/16 00:39:46;;;;;;;20.53;8.67;;;;;;;-3.85;100.00;97227.72;10370420;28;20745;-58
2022/01/16 00:44:47;;;;;;;17.83;7.37;;;;;;;-3.48;100.00;97198.22;10370719;28;20680;-59
2022/01/16 00:49:47;;;;;;;17.27;7.57;;;;;;;-3.36;100.00;97207.16;10370269;28;20783;-58
2022/01/16 00:54:48;;;;;;;16.43;6.93;;;;;;;-3.54;100.00;97211.25;10370512;28;20663;-60
2022/01/16 00:59:48;;;;;;;17.03;6.53;;;;;;;-3.58;100.00;97213.09;10373910;28;20221;-58
2022/01/16 01:04:49;;;;;;;12.13;6.60;;;;;;;-3.61;100.00;97218.34;10378740;28;20213;-60
2022/01/16 01:09:49;;;;;;;16.50;7.13;;;;;;;-3.80;100.00;97187.47;10378617;28;20208;-59
2022/01/16 01:15:06;;;;;;;11.07;6.47;;;;;;;-3.75;100.00;97194.97;10378092;28;20288;-59
2022/01/16 01:20:07;;;;;;;16.17;6.67;;;;;;;-3.79;100.00;97193.41;10377628;28;20228;-60
2022/01/16 01:25:11;;;;;;;11.00;5.57;;;;;;;-3.64;100.00;97210.75;10378148;28;20272;-61
2022/01/16 01:30:14;;;;;;;13.60;5.30;;;;;;;-3.67;100.00;97190.41;10377527;28;20329;-61
2022/01/16 01:35:16;;;;;;;11.43;6.00;;;;;;;-3.68;100.00;97139.25;10377525;28;20193;-61
2022/01/16 01:40:24;;;;;;;11.50;5.13;;;;;;;-3.56;100.00;97092.69;10376838;28;20240;-61
2022/01/16 01:51:17;;;;;;;8.00;4.87;;;;;;;-3.54;100.00;97136.16;10373974;28;20221;-61
2022/01/16 01:56:18;;;;;;;12.93;5.20;;;;;;;-3.44;100.00;97150.28;10375299;28;20236;-62
2022/01/16 02:01:18;;;;;;;10.80;5.60;;;;;;;-3.38;100.00;97119.31;10376162;28;20213;-61
2022/01/16 02:06:21;;;;;;;9.37;5.07;;;;;;;-3.39;100.00;97117.63;10375706;28;20213;-61
2022/01/16 02:11:25;;;;;;;10.90;4.57;;;;;;;-3.17;100.00;97088.59;10375558;28;20605;-59
2022/01/16 02:32:40;;;;;;;6.20;3.00;;;;;;;-2.52;100.00;97097.00;10373415;28;20188;-60
2022/01/16 02:37:41;;;;;;;4.50;3.57;;;;;;;-2.44;100.00;97089.78;10375287;28;20606;-60
2022/01/16 02:42:47;;;;;;;7.13;3.00;;;;;;;-2.51;100.00;97075.56;10374709;28;20247;-59
2022/01/16 02:47:48;;;;;;;7.13;3.13;;;;;;;-2.58;100.00;97051.09;10374781;28;20216;-60
2022/01/16 02:52:49;;;;;;;6.07;3.47;;;;;;;-2.45;100.00;97057.34;10374565;28;20189;-60
2022/01/16 02:57:50;;;;;;;5.40;3.67;;;;;;;-2.41;100.00;97048.59;10374402;28;20213;-60
2022/01/16 03:02:51;;;;;;;6.60;3.90;;;;;;;-2.35;100.00;97055.19;10373899;28;20283;-61
2022/01/16 03:07:52;;;;;;;6.60;3.80;;;;;;;-2.29;100.00;97043.84;10373763;28;20247;-60
2022/01/16 03:12:52;;;;;;;7.50;4.03;;;;;;;-2.04;100.00;97025.56;10373871;28;20217;-62
2022/01/16 03:22:59;;;;;;;9.23;4.87;;;;;;;-1.80;100.00;96997.94;10372621;28;20308;-59
2022/01/16 03:27:59;;;;;;;8.23;5.20;;;;;;;-1.69;100.00;96987.97;10373222;28;20610;-59
2022/01/16 03:32:59;;;;;;;9.57;5.00;;;;;;;-1.86;100.00;96981.06;10372878;28;20692;-60
2022/01/16 03:38:00;;;;;;;10.27;4.17;;;;;;;-1.63;100.00;96964.53;10372806;28;20619;-59
2022/01/16 03:43:11;;;;;;;13.10;6.20;;;;;;;-1.55;100.00;96948.75;10372382;28;20634;-62
2022/01/16 03:48:13;;;;;;;9.73;5.27;;;;;;;-1.35;100.00;96941.78;10372564;28;20213;-62
2022/01/16 03:53:16;;;;;;;11.00;5.90;;;;;;;-1.18;100.00;96925.53;10372104;28;20533;-62
2022/01/16 03:58:16;;;;;;;12.70;6.47;;;;;;;-1.27;100.00;96921.69;10372201;28;20714;-60
2022/01/16 04:03:17;;;;;;;13.33;5.73;;;;;;;-1.02;100.00;96907.56;10371470;28;20199;-61
2022/01/16 04:08:17;;;;;;;7.57;4.30;;;;;;;-1.05;100.00;96897.47;10371833;28;20220;-61
2022/01/16 04:13:20;;;;;;;11.43;6.10;;;;;;;-0.92;100.00;96886.44;10371649;28;20186;-61
2022/01/16 04:18:20;;;;;;;11.73;5.00;;;;;;;-0.96;100.00;96887.50;10371112;28;20221;-57
2022/01/16 04:23:20;;;;;;;14.97;6.30;;;;;;;-0.70;98.46;96851.84;10371080;28;20668;-62
2022/01/16 04:28:24;;;;;;;12.57;6.90;;;;;;;-0.63;97.42;96852.34;10371108;28;20242;-63
2022/01/16 04:33:25;;;;;;;11.53;6.07;;;;;;;-0.49;94.93;96837.00;10370355;28;20190;-62
2022/01/16 04:38:25;;;;;;;12.47;5.63;;;;;;;-0.52;94.60;96837.16;10370512;28;20248;-61
2022/01/16 04:48:44;;;;;;;13.67;6.33;;;;;;;-0.28;91.86;96804.03;10370684;28;20747;-61
2022/01/16 04:53:45;;;;;;;11.67;5.93;;;;;;;-0.39;92.13;96793.53;10370359;28;20235;-62
2022/01/16 04:58:46;;;;;;;14.77;6.00;;;;;;;-0.32;91.61;96792.28;10370266;28;20224;-60
2022/01/16 05:03:46;;;;;;;10.00;5.23;;;;;;;-0.22;90.42;96774.56;10370028;28;20197;-62
2022/01/16 05:08:47;;;;;;;11.90;5.77;;;;;;;-0.19;89.13;96766.66;10370350;28;20217;-60
2022/01/16 05:18:47;;;;;;;7.53;3.80;;;;;;;-0.01;87.05;96737.25;10369273;28;20392;-62
2022/01/16 05:23:48;;;;;;;13.03;5.57;;;;;;;-0.22;87.97;96752.22;10370107;28;20217;-62
2022/01/16 05:28:48;;;;;;;7.40;3.43;;;;;;;-0.01;85.78;96723.56;10369810;28;20305;-61
2022/01/16 05:33:49;;;;;;;10.50;5.13;;;;;;;0.05;84.92;96709.50;10369723;28;20193;-62
2022/01/16 05:38:50;;;;;;;11.90;4.90;;;;;;;-0.02;85.68;96730.44;10369569;28;20226;-62
2022/01/16 05:43:52;;;;;;;16.10;5.13;;;;;;;0.01;84.51;96718.31;10369711;28;20212;-62
2022/01/16 05:48:52;;;;;;;7.77;3.50;;;;;;;0.39;82.57;96687.66;10376826;28;20211;-62
2022/01/16 05:53:52;;;;;;;7.77;4.47;;;;;;;0.41;82.46;96685.81;10376619;28;20257;-63
2022/01/16 05:58:53;;;;;;;8.00;4.87;;;;;;;0.19;83.21;96695.81;10376702;28;20366;-63
2022/01/16 06:03:53;;;;;;;5.57;3.57;;;;;;;0.27;82.97;96694.38;10376561;28;20201;-63
2022/01/16 06:08:53;;;;;;;7.43;4.40;;;;;;;0.33;82.26;96691.44;10376099;28;20240;-61
2022/01/16 06:13:54;;;;;;;7.57;4.63;;;;;;;0.08;84.07;96715.28;10376387;28;20252;-63
2022/01/16 06:18:54;;;;;;;7.57;4.20;;;;;;;0.03;85.26;96729.34;10375358;28;20209;-61
2022/01/16 06:23:55;;;;;;;3.87;2.53;;;;;;;0.17;85.73;96725.03;10375979;28;20220;-62
2022/01/16 06:28:55;;;;;;;4.33;2.70;;;;;;;0.39;85.27;96722.94;10374883;28;20239;-61
2022/01/16 06:33:55;;;;;;;7.57;3.73;;;;;;;0.15;87.21;96750.06;10375320;28;20261;-60
2022/01/16 06:38:56;;;;;;;13.40;5.57;;;;;;;0.14;89.28;96775.94;10374833;28;20259;-60
2022/01/16 06:43:57;;;;;;;16.33;8.60;;;;;;;0.22;89.76;96778.06;10375098;28;20268;-60
2022/01/16 06:48:57;;;;;;;9.73;5.03;;;;;;;-0.01;91.33;96793.09;10374969;28;20206;-60
2022/01/16 06:53:57;;;;;;;9.27;5.77;;;;;;;0.17;92.29;96796.34;10374572;28;20189;-58
2022/01/16 06:58:58;;;;;;;14.30;6.53;;;;;;;0.04;93.96;96813.44;10373659;28;20232;-60
2022/01/16 07:03:59;;;;;;;12.77;5.77;;;;;;;-0.08;94.92;96820.94;10374008;28;20203;-60
2022/01/16 07:08:59;;;;;;;11.97;6.43;;;;;;;0.01;94.68;96806.69;10374258;28;20213;-60
2022/01/16 07:13:59;;;;;;;12.40;5.20;;;;;;;0.17;93.76;96801.50;10373697;28;20210;-60
2022/01/16 07:19:00;;;;;;;7.43;4.17;;;;;;;0.10;94.68;96815.66;10373308;28;20251;-62
2022/01/16 07:24:00;;;;;;;6.97;4.50;;;;;;;-0.04;95.68;96842.19;10373782;28;20213;-62
2022/01/16 07:29:00;;;;;;;9.27;4.83;;;;;;;-0.02;96.14;96841.19;10373162;28;20291;-57
2022/01/16 07:34:01;;;;;;;12.20;5.27;;;;;;;-0.07;95.92;96860.41;10373062;28;20199;-59
2022/01/16 07:39:02;;;;;;;8.17;4.60;;;;;;;-0.04;95.07;96837.88;10372372;28;20237;-60
2022/01/16 07:44:03;;;;;;;9.87;5.07;;;;;;;0.02;94.26;96836.69;10372693;28;20193;-61
2022/01/16 07:49:03;;;;;;;7.20;4.60;;;;;;;0.06;93.68;96839.91;10372475;28;20303;-60
2022/01/16 07:54:03;;;;;;;12.83;6.43;;;;;;;0.21;92.91;96849.34;10372044;28;20199;-60
2022/01/16 07:59:04;;;;;;;11.60;6.67;;;;;;;0.30;92.41;96845.41;10372163;28;20378;-61
2022/01/16 08:04:04;;;;;;;12.57;7.20;;;;;;;0.69;91.17;96838.81;10371616;28;20609;-64
2022/01/16 08:09:05;;;;;;;9.73;4.73;;;;;;;1.63;88.04;96809.78;10371979;28;20204;-63
2022/01/16 08:14:05;;;;;;;8.67;5.37;;;;;;;2.25;83.93;96788.50;10371528;28;20185;-63
2022/01/16 08:19:05;;;;;;;18.73;10.37;;;;;;;2.97;85.15;96826.72;10371092;28;20283;-64
2022/01/16 08:24:06;;;;;;;11.63;5.43;;;;;;;2.53;82.14;96793.53;10371321;28;20227;-62
2022/01/16 08:29:06;;;;;;;9.73;5.40;;;;;;;3.02;80.13;96754.75;10371077;28;20212;-63
2022/01/16 08:34:07;;;;;;;14.00;7.57;;;;;;;2.41;81.19;96784.88;10370952;28;20193;-62
2022/01/16 08:39:07;;;;;;;7.33;4.53;;;;;;;2.44;81.69;96798.41;10370321;28;20229;-62
2022/01/16 08:44:08;;;;;;;8.67;4.93;;;;;;;2.77;82.04;96798.78;10370551;28;20282;-60
2022/01/16 08:49:08;;;;;;;8.90;5.60;;;;;;;2.52;81.38;96782.38;10370616;28;20201;-61
2022/01/16 08:54:08;;;;;;;8.90;5.47;;;;;;;2.73;82.22;96795.59;10370306;28;20203;-62
2022/01/16 08:59:09;;;;;;;8.60;5.37;;;;;;;2.74;81.90;96786.91;10370209;28;20217;-63
2022/01/16 09:04:09;;;;;;;11.27;6.13;;;;;;;2.29;83.08;96802.03;10370420;28;20277;-63
2022/01/16 09:09:09;;;;;;;7.23;5.10;;;;;;;3.55;81.14;96776.91;10370169;28;20221;-62
2022/01/16 09:14:10;;;;;;;9.40;5.43;;;;;;;4.59;75.82;96700.03;10370145;28;20185;-62
2022/01/16 09:19:10;;;;;;;7.97;5.00;;;;;;;4.97;69.08;96613.94;10370569;28;20221;-61
2022/01/16 09:24:10;;;;;;;4.27;3.17;;;;;;;5.16;64.35;96539.72;10376392;28;20218;-63
2022/01/16 09:29:11;;;;;;;4.70;2.63;;;;;;;5.58;60.51;96490.34;10378033;28;20233;-64
2022/01/16 09:34:11;;;;;;;4.77;3.00;;;;;;;4.62;62.58;96542.38;10377623;28;20189;-64
2022/01/16 09:39:12;;;;;;;3.57;2.27;;;;;;;4.81;64.44;96591.00;10377095;28;20239;-62
2022/01/16 09:44:13;;;;;;;4.00;3.27;;;;;;;4.53;64.96;96586.34;10377269;28;20718;-63
2022/01/16 09:49:13;;;;;;;3.63;2.43;;;;;;;4.41;66.33;96620.13;10377029;28;20708;-62
2022/01/16 09:54:14;;;;;;;3.70;2.37;;;;;;;4.70;67.37;96640.34;10376840;28;20232;-63
2022/01/16 09:59:14;;;;;;;3.77;2.30;;;;;;;4.97;65.95;96624.31;10376492;28;20225;-61
2022/01/16 10:04:37;;;;;;;2.60;2.03;;;;;;;4.69;68.29;96669.81;10376419;28;20203;-62
2022/01/16 10:09:40;;;;;;;4.80;2.83;;;;;;;4.49;71.00;96723.28;10376330;28;20213;-61
2022/01/16 10:14:50;;;;;;;7.17;3.23;;;;;;;4.33;72.20;96753.91;10375916;28;20308;-61
2022/01/16 10:20:07;;;;;;;5.07;2.70;;;;;;;4.56;72.44;96740.00;10375430;28;20225;-62
2022/01/16 10:25:08;;;;;;;6.07;2.90;;;;;;;4.39;73.60;96762.03;10375594;28;20272;-61
2022/01/16 10:30:12;;;;;;;7.17;3.43;;;;;;;4.57;72.22;96746.03;10374817;28;20240;-60
2022/01/16 10:35:23;;;;;;;4.90;3.10;;;;;;;5.21;71.83;96736.72;10374877;28;20283;-64
2022/01/16 10:40:31;;;;;;;6.43;3.00;;;;;;;4.60;72.92;96749.19;10374720;28;20933;-64
2022/01/16 10:45:33;;;;;;;7.07;3.17;;;;;;;3.79;75.02;96757.94;10374561;28;20268;-64
2022/01/16 10:50:44;;;;;;;6.27;3.13;;;;;;;4.41;73.63;96721.28;10374770;28;20212;-63
2022/01/16 10:55:47;;;;;;;8.03;2.60;;;;;;;4.72;74.03;96731.06;10374231;28;20233;-63
2022/01/16 11:00:54;;;;;;;11.30;6.20;;;;;;;4.58;76.35;96766.66;10373815;28;20695;-64
2022/01/16 11:05:55;;;;;;;11.17;5.83;;;;;;;4.87;75.30;96739.38;10373650;28;20307;-63
2022/01/16 11:10:57;;;;;;;8.10;4.07;;;;;;;4.27;77.46;96765.56;10373624;28;20268;-63
2022/01/16 11:15:59;;;;;;;8.90;3.70;;;;;;;4.54;77.99;96785.19;10373430;28;20205;-64
2022/01/16 11:26:04;;;;;;;9.57;4.00;;;;;;;5.31;77.76;96781.78;10373127;28;20221;-64
2022/01/16 11:31:06;;;;;;;10.23;4.60;;;;;;;5.21;77.01;96771.31;10372702;28;20193;-63
2022/01/16 11:36:13;;;;;;;8.63;4.13;;;;;;;4.56;79.07;96804.84;10372427;28;20225;-60
2022/01/16 11:41:24;;;;;;;8.67;4.33;;;;;;;3.85;81.64;96837.81;10371234;28;20224;-64
2022/01/16 11:46:29;;;;;;;9.03;4.70;;;;;;;2.91;87.70;96907.34;10372103;28;20290;-61
2022/01/16 11:51:32;;;;;;;14.80;5.57;;;;;;;2.14;96.52;96881.41;10372141;28;20676;-62
2022/01/16 11:56:41;;;;;;;11.60;5.60;;;;;;;1.75;100.00;96878.72;10371918;28;20278;-63
2022/01/16 12:01:42;;;;;;;11.77;5.27;;;;;;;2.12;100.00;96876.34;10371667;28;20294;-64
2022/01/16 12:06:42;;;;;;;9.50;5.50;;;;;;;2.13;100.00;96879.78;10371540;28;20229;-64
2022/01/16 12:11:43;;;;;;;12.37;5.30;;;;;;;1.84;100.00;96895.38;10370093;28;20192;-62
2022/01/16 12:16:45;;;;;;;11.93;6.43;;;;;;;1.29;100.00;96906.56;10371143;28;20206;-63
2022/01/16 12:21:53;;;;;;;12.43;5.60;;;;;;;1.94;100.00;96911.13;10370659;28;20229;-63
2022/01/16 12:27:30;;;;;;;9.03;5.67;;;;;;;1.69;100.00;96923.00;10371464;28;20315;-61
2022/01/16 12:32:50;;;;;;;11.23;6.30;;;;;;;1.68;100.00;96930.84;10370913;28;20221;-63
2022/01/16 12:37:51;;;;;;;19.07;7.13;;;;;;;1.33;100.00;96926.09;10370305;28;20252;-62
2022/01/16 12:42:52;;;;;;;18.73;7.30;;;;;;;0.84;100.00;96946.22;10366183;28;20215;-63
2022/01/16 12:47:53;;;;;;;13.50;9.10;;;;;;;0.16;100.00;96946.66;10369378;28;20676;-61
2022/01/16 12:52:53;;;;;;;15.17;8.47;;;;;;;0.07;100.00;96954.91;10370174;28;20203;-62
2022/01/16 12:57:53;;;;;;;14.93;7.87;;;;;;;-0.05;100.00;96949.50;10369625;28;20216;-59
2022/01/16 13:02:54;;;;;;;16.43;8.00;;;;;;;-0.15;100.00;96955.25;10369939;28;20220;-60
2022/01/16 13:07:59;;;;;;;14.00;6.07;;;;;;;-0.17;100.00;96952.75;10369986;28;20212;-59
2022/01/16 13:13:10;;;;;;;15.77;7.50;;;;;;;-0.20;100.00;96968.38;10369976;28;20687;-62
2022/01/16 13:18:13;;;;;;;15.73;8.37;;;;;;;-0.19;100.00;96960.56;10369586;28;20291;-63
2022/01/16 13:23:16;;;;;;;15.90;7.43;;;;;;;0.05;100.00;96961.91;10369103;28;20231;-63
2022/01/16 13:28:29;;;;;;;17.00;7.70;;;;;;;0.09;100.00;96965.94;10369632;28;20217;-58
2022/01/16 13:33:30;;;;;;;17.40;7.73;;;;;;;0.05;100.00;96972.22;10369514;28;20197;-60
2022/01/16 13:38:30;;;;;;;16.70;7.73;;;;;;;-0.03;100.00;96976.03;10369014;28;20255;-61
2022/01/16 13:43:31;;;;;;;18.80;10.13;;;;;;;-0.37;100.00;96975.28;10369417;28;20229;-61
2022/01/16 13:48:31;;;;;;;19.33;8.37;;;;;;;-0.27;100.00;96983.34;10368774;28;20209;-62
2022/01/16 13:53:38;;;;;;;17.53;9.27;;;;;;;-0.50;100.00;96979.41;10369071;28;20679;-60
2022/01/16 13:58:43;;;;;;;21.93;9.17;;;;;;;-0.40;100.00;96974.59;10368851;28;20214;-61
2022/01/16 14:03:48;;;;;;;13.77;8.20;;;;;;;-0.49;100.00;96977.66;10368789;28;20582;-60
2022/01/16 14:08:51;;;;;;;16.80;8.33;;;;;;;-0.38;100.00;96985.66;10375071;28;20292;-60
2022/01/16 14:13:56;;;;;;;17.47;9.03;;;;;;;-0.48;100.00;96994.78;10376009;28;20652;-61
2022/01/16 14:23:57;;;;;;;15.93;8.33;;;;;;;-0.55;100.00;96986.56;10374059;28;20199;-61
2022/01/16 14:28:58;;;;;;;16.40;8.30;;;;;;;-0.48;100.00;96984.50;10375258;28;20236;-61
2022/01/16 14:33:58;;;;;;;15.63;8.57;;;;;;;-0.62;100.00;96985.22;10375026;28;20193;-61
2022/01/16 14:38:58;;;;;;;14.07;7.50;;;;;;;-0.44;100.00;96984.25;10374696;28;20298;-63
2022/01/16 14:44:00;;;;;;;16.03;8.80;;;;;;;-0.58;100.00;97000.41;10373706;28;20197;-61
2022/01/16 14:49:00;;;;;;;23.70;10.17;;;;;;;-0.43;100.00;96978.19;10373287;28;20212;-62
2022/01/16 14:54:03;;;;;;;18.33;9.43;;;;;;;-0.62;100.00;96987.78;10374679;28;20227;-60
2022/01/16 14:59:03;;;;;;;17.40;8.80;;;;;;;-0.39;100.00;96977.09;10372645;28;20318;-59
2022/01/16 15:04:05;;;;;;;17.77;8.80;;;;;;;-0.23;100.00;96978.84;10373856;28;20288;-60
2022/01/16 15:09:06;;;;;;;21.77;11.33;;;;;;;-0.56;100.00;97000.34;10373582;28;20205;-60
2022/01/16 15:14:07;;;;;;;17.23;8.90;;;;;;;-0.56;100.00;97002.91;10374154;28;20272;-59
2022/01/16 15:19:18;;;;;;;18.97;8.87;;;;;;;-0.59;100.00;97018.50;10372388;28;20224;-59
2022/01/16 15:24:18;;;;;;;20.13;11.37;;;;;;;-0.59;100.00;97033.94;10373478;28;20196;-61
2022/01/16 15:29:19;;;;;;;21.97;10.27;;;;;;;-0.49;100.00;97050.56;10376216;28;20268;-59
2022/01/16 15:34:20;;;;;;;18.70;11.23;;;;;;;-0.45;100.00;97046.09;10376717;28;20222;-60
2022/01/16 15:39:22;;;;;;;21.93;11.37;;;;;;;-0.47;100.00;97043.59;10372835;28;20728;-61
2022/01/16 15:44:23;;;;;;;16.00;9.63;;;;;;;-0.41;100.00;97040.69;10370500;28;20676;-60
2022/01/16 15:49:24;;;;;;;21.27;12.80;;;;;;;-0.50;100.00;97041.19;10370543;28;20209;-60
2022/01/16 15:54:25;;;;;;;19.50;11.67;;;;;;;-0.43;100.00;97055.41;10372368;28;20224;-59
2022/01/16 15:59:25;;;;;;;21.67;12.47;;;;;;;-0.40;100.00;97055.25;10372232;28;20225;-62
2022/01/16 16:04:26;;;;;;;21.10;12.67;;;;;;;-0.39;100.00;97056.06;10372224;28;20220;-62
2022/01/16 16:09:26;;;;;;;10.90;6.07;;;;;;;-0.47;100.00;97071.09;10371871;28;20251;-63
2022/01/16 16:14:26;;;;;;;21.13;8.47;;;;;;;-0.49;100.00;97063.44;10371639;28;20208;-62
2022/01/16 16:19:28;;;;;;;16.93;8.60;;;;;;;-0.52;100.00;97073.91;10371294;28;20236;-60
2022/01/16 16:24:28;;;;;;;17.20;9.60;;;;;;;-0.53;100.00;97077.38;10371538;28;20566;-62
2022/01/16 16:29:29;;;;;;;17.30;10.00;;;;;;;-0.55;100.00;97086.91;10371381;28;20218;-62
2022/01/16 16:34:29;;;;;;;16.60;9.20;;;;;;;-0.45;100.00;97080.38;10371036;28;20261;-59
2022/01/16 16:39:30;;;;;;;13.57;8.80;;;;;;;-0.38;100.00;97080.91;10416064;23;20240;-58
2022/01/16 16:44:30;;;;;;;18.97;10.23;;;;;;;-0.41;100.00;97083.63;10411384;28;20223;-61
2022/01/16 16:49:31;;;;;;;16.37;10.50;;;;;;;-0.47;100.00;97089.91;10411161;28;20212;-63
2022/01/16 16:54:32;;;;;;;17.27;10.73;;;;;;;-0.41;100.00;97075.91;10411320;28;20198;-61
2022/01/16 16:59:33;;;;;;;25.20;15.20;;;;;;;-0.42;100.00;97076.81;10410980;28;20771;-59
2022/01/16 17:04:33;;;;;;;19.47;9.93;;;;;;;-0.27;100.00;97080.34;10410926;28;20192;-63
2022/01/16 17:09:34;;;;;;;20.10;11.63;;;;;;;-0.25;100.00;97078.50;10410765;28;20212;-61
2022/01/16 17:14:34;;;;;;;23.87;11.43;;;;;;;-0.14;100.00;97071.03;10410599;28;20192;-63
2022/01/16 17:24:35;;;;;;;17.77;9.33;;;;;;;-0.03;100.00;97073.91;10410550;28;20215;-62
2022/01/16 17:29:36;;;;;;;20.17;12.27;;;;;;;0.11;100.00;97080.06;10410612;28;20221;-61
2022/01/16 17:34:36;;;;;;;24.77;12.50;;;;;;;0.03;100.00;97084.78;10410505;28;20190;-65
2022/01/16 17:39:37;;;;;;;19.50;11.43;;;;;;;0.13;100.00;97083.38;10410115;28;20243;-63
2022/01/16 17:44:37;;;;;;;22.00;13.17;;;;;;;0.05;100.00;97085.53;10418137;28;20181;-63
2022/01/16 17:49:38;;;;;;;17.93;11.40;;;;;;;0.08;100.00;97085.38;10418097;28;20204;-63
2022/01/16 17:54:38;;;;;;;20.80;13.70;;;;;;;0.07;100.00;97094.00;10417810;28;20258;-63
2022/01/16 17:59:38;;;;;;;15.03;9.73;;;;;;;0.12;100.00;97100.59;10417533;28;20212;-62
2022/01/16 18:04:39;;;;;;;22.03;12.17;;;;;;;0.15;100.00;97103.00;10417445;28;20188;-63
2022/01/16 18:09:39;;;;;;;21.90;14.27;;;;;;;0.15;100.00;97107.28;10417299;28;20235;-63
2022/01/16 18:14:40;;;;;;;23.27;13.63;;;;;;;0.17;100.00;97100.34;10417246;28;20188;-61
2022/01/16 18:19:42;;;;;;;22.20;12.57;;;;;;;0.21;100.00;97095.84;10416345;28;20318;-63
2022/01/16 18:24:42;;;;;;;21.93;12.70;;;;;;;0.21;100.00;97103.56;10416906;28;20278;-62
2022/01/16 18:29:43;;;;;;;26.53;16.63;;;;;;;0.23;100.00;97119.75;10414681;28;20302;-60
2022/01/16 18:34:44;;;;;;;26.27;15.97;;;;;;;0.24;100.00;97126.59;10416287;28;20558;-64
2022/01/16 18:39:46;;;;;;;30.13;18.93;;;;;;;0.26;100.00;97128.19;10415934;28;20234;-60
2022/01/16 18:44:49;;;;;;;27.30;17.47;;;;;;;0.32;100.00;97139.88;10415780;28;20307;-63
2022/01/16 18:49:49;;;;;;;26.10;15.50;;;;;;;0.37;100.00;97137.06;10416133;28;20211;-63
2022/01/16 18:54:50;;;;;;;22.13;13.63;;;;;;;0.43;100.00;97139.31;10414370;28;20673;-58
2022/01/16 18:59:50;;;;;;;22.53;13.50;;;;;;;0.49;100.00;97139.81;10415312;28;20227;-60
2022/01/16 19:04:50;;;;;;;23.97;14.53;;;;;;;0.48;100.00;97145.88;10414516;28;20231;-63
2022/01/16 19:09:51;;;;;;;21.10;12.33;;;;;;;0.56;100.00;97137.72;10414352;28;20506;-64
2022/01/16 19:14:52;;;;;;;22.77;14.80;;;;;;;0.57;100.00;97138.53;10414335;28;20625;-61
2022/01/16 19:19:53;;;;;;;16.27;9.83;;;;;;;0.60;100.00;97138.38;10413521;28;20307;-62
2022/01/16 19:24:53;;;;;;;21.40;11.10;;;;;;;0.66;100.00;97131.16;10414267;28;20661;-61
2022/01/16 19:29:55;;;;;;;21.50;13.10;;;;;;;0.59;100.00;97150.44;10413787;28;20208;-61
2022/01/16 19:34:55;;;;;;;18.27;11.83;;;;;;;0.64;100.00;97139.88;10413641;28;20746;-60
2022/01/16 19:39:56;;;;;;;18.27;11.50;;;;;;;0.53;100.00;97125.00;10413591;28;20238;-61
2022/01/16 19:44:56;;;;;;;18.27;11.97;;;;;;;0.47;100.00;97133.06;10413200;28;20238;-60
2022/01/16 19:49:56;;;;;;;18.33;11.70;;;;;;;0.45;100.00;97140.06;10413486;28;20286;-61
2022/01/16 19:54:57;;;;;;;17.40;10.23;;;;;;;0.51;100.00;97147.47;10412796;28;20188;-60
2022/01/16 19:59:57;;;;;;;14.13;8.33;;;;;;;0.58;100.00;97145.38;10412653;28;20234;-60
2022/01/16 20:04:58;;;;;;;19.43;10.93;;;;;;;0.47;100.00;97151.13;10412311;28;20216;-61
2022/01/16 20:09:58;;;;;;;18.83;13.23;;;;;;;0.54;100.00;97157.63;10412153;28;20215;-63
2022/01/16 20:14:59;;;;;;;17.57;11.67;;;;;;;0.62;100.00;97158.00;10412245;28;20196;-59
2022/01/16 20:19:59;;;;;;;15.17;9.77;;;;;;;0.71;100.00;97169.56;10411260;28;20235;-60
2022/01/16 20:24:59;;;;;;;17.07;10.27;;;;;;;0.78;100.00;97172.66;10412049;28;20195;-61
2022/01/16 20:30:00;;;;;;;16.20;10.03;;;;;;;0.85;100.00;97176.56;10411661;28;20214;-61
2022/01/16 20:35:00;;;;;;;16.90;9.53;;;;;;;0.80;100.00;97184.56;10411658;28;20213;-60
2022/01/16 20:40:01;;;;;;;19.00;10.43;;;;;;;0.81;100.00;97177.63;10411277;28;20252;-58
2022/01/16 20:45:01;;;;;;;14.67;10.50;;;;;;;0.81;100.00;97191.38;10411201;28;20192;-61
2022/01/16 20:50:03;;;;;;;17.13;10.17;;;;;;;0.94;100.00;97198.44;10411039;28;20295;-60
2022/01/16 20:55:05;;;;;;;21.40;11.57;;;;;;;0.89;100.00;97196.13;10410973;28;20203;-60
2022/01/16 21:00:06;;;;;;;19.23;11.10;;;;;;;0.88;100.00;97181.53;10410770;28;20227;-61
2022/01/16 21:05:07;;;;;;;16.03;9.77;;;;;;;0.96;100.00;97175.97;10410884;28;20199;-60
2022/01/16 21:10:08;;;;;;;19.57;11.97;;;;;;;0.92;100.00;97190.78;10410665;28;20234;-61
2022/01/16 21:15:08;;;;;;;18.90;11.10;;;;;;;0.97;100.00;97183.63;10412106;28;20199;-59
2022/01/16 21:20:09;;;;;;;21.40;11.73;;;;;;;0.91;100.00;97175.41;10418765;28;20220;-59
2022/01/16 21:25:10;;;;;;;21.67;12.13;;;;;;;0.98;100.00;97187.88;10418954;28;20195;-60
2022/01/16 21:30:11;;;;;;;20.60;11.90;;;;;;;0.93;100.00;97170.97;10418711;28;20207;-60
2022/01/16 21:35:13;;;;;;;22.07;13.77;;;;;;;0.89;100.00;97160.00;10418656;28;20192;-60
2022/01/16 21:40:13;;;;;;;19.37;11.83;;;;;;;0.97;100.00;97152.66;10418096;28;20894;-59
2022/01/16 21:45:15;;;;;;;19.93;12.23;;;;;;;1.01;100.00;97150.72;10418279;28;20191;-63
2022/01/16 21:50:16;;;;;;;21.40;12.23;;;;;;;1.02;100.00;97137.75;10417966;28;20590;-59
2022/01/16 21:55:19;;;;;;;20.13;11.30;;;;;;;1.07;100.00;97140.06;10417994;28;20189;-61
2022/01/16 22:00:20;;;;;;;20.23;11.27;;;;;;;1.11;100.00;97146.72;10433039;28;20227;-61
2022/01/16 22:05:20;;;;;;;17.73;9.60;;;;;;;1.15;100.00;97139.63;10437764;28;20200;-61
2022/01/16 22:10:21;;;;;;;20.33;11.83;;;;;;;1.08;100.00;97151.22;10437436;28;20638;-62
2022/01/16 22:15:21;;;;;;;18.67;10.67;;;;;;;1.09;100.00;97166.63;10441804;28;20645;-62
2022/01/16 22:20:21;;;;;;;24.60;13.37;;;;;;;0.98;100.00;97168.97;10417929;28;20614;-61
2022/01/16 22:25:22;;;;;;;21.93;12.13;;;;;;;0.96;100.00;97170.81;10417582;28;20662;-61
2022/01/16 22:30:22;;;;;;;19.13;11.73;;;;;;;1.02;100.00;97171.28;10417289;28;20589;-61
2022/01/16 22:35:22;;;;;;;20.90;11.67;;;;;;;1.02;100.00;97173.03;10416654;28;20674;-62
2022/01/16 22:40:23;;;;;;;19.80;10.83;;;;;;;1.02;100.00;97167.88;10403289;22;20248;-64
2022/01/16 22:45:23;;;;;;;22.43;14.00;;;;;;;1.03;100.00;97179.88;10375420;28;20201;-63
2022/01/16 22:50:24;;;;;;;24.33;13.83;;;;;;;1.03;100.00;97177.28;10374743;28;20235;-63
2022/01/16 22:55:25;;;;;;;22.13;13.77;;;;;;;0.97;100.00;97175.06;10374705;28;20603;-61
2022/01/16 23:00:26;;;;;;;23.93;14.73;;;;;;;0.95;100.00;97188.03;10374478;28;20231;-63
2022/01/16 23:05:26;;;;;;;24.77;13.77;;;;;;;0.82;100.00;97187.03;10372871;28;20732;-62
2022/01/16 23:10:27;;;;;;;18.60;10.10;;;;;;;0.86;100.00;97191.13;10374295;28;20274;-62
2022/01/16 23:15:27;;;;;;;22.47;10.60;;;;;;;0.93;100.00;97196.75;10373786;28;20749;-62
2022/01/16 23:20:27;;;;;;;26.53;14.80;;;;;;;0.86;100.00;97188.53;10373441;28;20219;-62
2022/01/16 23:25:28;;;;;;;25.00;13.63;;;;;;;0.79;100.00;97194.94;10373631;28;20207;-63
2022/01/16 23:30:28;;;;;;;25.80;14.80;;;;;;;0.89;100.00;97186.63;10373117;28;20232;-64
2022/01/16 23:35:29;;;;;;;23.73;11.93;;;;;;;1.04;100.00;97184.94;10373401;28;20208;-63
2022/01/16 23:40:29;;;;;;;26.50;14.03;;;;;;;1.16;100.00;97198.06;10371806;28;20241;-64
2022/01/16 23:45:31;;;;;;;21.53;12.00;;;;;;;1.17;100.00;97184.25;10373006;28;20209;-63
2022/01/16 23:50:32;;;;;;;23.43;10.77;;;;;;;1.17;100.00;97166.19;10372389;28;20303;-63
2022/01/16 23:55:32;;;;;;;17.83;11.23;;;;;;;1.08;100.00;97162.38;10372294;28;20335;-63
